Time;durP1;ratioP1;P1;durP2;ratioP2;P2;SDS_P1;SDS_P2;PMS_P1;PMS_P2;Temp;Humidity;BMP_temperature;BMP_pressure;BME280_temperature;BME280_humidity;BME280_pressure;Samples;Min_cycle;Max_cycle;Signal;HPM_P1;HPM_P2
2024/04/24 00:00:06;;;;;;;0.08;0.08;;;9.50;99.90;;;;;;5495648;26;20157;-70
2024/04/24 00:02:31;;;;;;;1.42;0.75;;;9.40;99.90;;;;;;5495693;26;19990;-69
2024/04/24 00:05:01;;;;;;;0.63;0.47;;;9.30;99.90;;;;;;5498106;26;19990;-68
2024/04/24 00:07:28;;;;;;;0.93;0.93;;;9.20;99.90;;;;;;5519389;26;19997;-67
2024/04/24 00:09:53;;;;;;;0.95;0.95;;;9.20;99.90;;;;;;5495783;26;19990;-68
2024/04/24 00:12:19;;;;;;;2.42;1.05;;;9.20;99.90;;;;;;5495650;26;19990;-68
2024/04/24 00:14:45;;;;;;;0.93;0.75;;;9.20;99.90;;;;;;5495753;26;19994;-69
2024/04/24 00:17:11;;;;;;;0.20;0.20;;;9.30;99.90;;;;;;5488643;26;20002;-68
2024/04/24 00:19:40;;;;;;;2.53;1.08;;;9.10;99.90;;;;;;5492326;26;20033;-67
2024/04/24 00:22:06;;;;;;;1.10;0.57;;;9.30;99.90;;;;;;5495615;26;20014;-67
2024/04/24 00:24:31;;;;;;;0.73;0.38;;;9.40;99.90;;;;;;5498391;26;20043;-67
2024/04/24 00:26:57;;;;;;;0.10;0.10;;;9.20;99.90;;;;;;5504448;25;19993;-67
2024/04/24 00:29:23;;;;;;;0.82;0.60;;;9.30;99.90;;;;;;5470287;26;19998;-68
2024/04/24 00:31:52;;;;;;;2.55;0.85;;;9.40;99.90;;;;;;5531736;25;20264;-67
2024/04/24 00:34:18;;;;;;;0.63;0.57;;;9.20;99.90;;;;;;5532189;25;20098;-67
2024/04/24 00:36:44;;;;;;;1.70;0.55;;;9.30;99.90;;;;;;5531734;25;20001;-67
2024/04/24 00:39:10;;;;;;;2.10;0.88;;;9.40;99.90;;;;;;5533226;25;20088;-67
2024/04/24 00:41:35;;;;;;;0.77;0.77;;;9.10;99.90;;;;;;5534622;25;19993;-67
2024/04/24 00:44:01;;;;;;;0.95;0.52;;;9.20;99.90;;;;;;5533430;25;20048;-67
2024/04/24 00:46:28;;;;;;;1.15;0.75;;;9.10;99.90;;;;;;5535521;25;20173;-67
2024/04/24 00:48:56;;;;;;;0.45;0.38;;;9.30;99.90;;;;;;5535996;25;19985;-67
2024/04/24 00:51:22;;;;;;;0.20;0.20;;;;;;;;;;5535908;25;19990;-67
2024/04/24 00:53:48;;;;;;;0.38;0.35;;;9.00;99.90;;;;;;5535502;25;19999;-67
2024/04/24 00:56:13;;;;;;;1.08;0.90;;;9.20;99.90;;;;;;5541726;25;19994;-67
2024/04/24 00:58:40;;;;;;;1.38;1.00;;;9.10;99.90;;;;;;5537885;25;19997;-66
2024/04/24 01:01:06;;;;;;;0.40;0.40;;;9.20;99.90;;;;;;5545098;25;20025;-67
2024/04/24 01:03:32;;;;;;;1.30;0.65;;;9.10;99.90;;;;;;5535538;25;19993;-67
2024/04/24 01:05:58;;;;;;;0.45;0.45;;;9.40;99.90;;;;;;5535722;25;20164;-67
2024/04/24 01:08:24;;;;;;;0.20;0.20;;;9.20;99.90;;;;;;5535533;25;20002;-67
2024/04/24 01:10:56;;;;;;;0.38;0.38;;;9.20;99.90;;;;;;5535536;25;20001;-67
2024/04/24 01:13:22;;;;;;;0.45;0.45;;;9.20;99.90;;;;;;5504757;25;20445;-68
2024/04/24 01:15:53;;;;;;;0.43;0.38;;;9.20;99.90;;;;;;5467051;26;20002;-68
2024/04/24 01:18:21;;;;;;;0.75;0.75;;;9.10;99.90;;;;;;5535130;25;20650;-68
2024/04/24 01:20:48;;;;;;;0.82;0.57;;;9.20;99.90;;;;;;5535332;25;19998;-68
2024/04/24 01:23:34;;;;;;;0.40;0.40;;;9.10;99.90;;;;;;5539771;25;20198;-70
2024/04/24 01:26:12;;;;;;;4.25;0.68;;;9.20;99.90;;;;;;5524210;25;20009;-70
2024/04/24 01:28:37;;;;;;;1.50;0.77;;;9.20;99.90;;;;;;5549773;25;20004;-69
2024/04/24 01:31:04;;;;;;;1.45;0.13;;;9.20;99.90;;;;;;5536585;25;20077;-68
2024/04/24 01:33:30;;;;;;;0.15;0.13;;;9.10;99.90;;;;;;5535128;25;19989;-68
2024/04/24 01:35:56;;;;;;;1.13;0.60;;;9.10;99.90;;;;;;5535244;25;20000;-69
2024/04/24 01:38:21;;;;;;;0.22;0.22;;;9.20;99.90;;;;;;5535062;25;19990;-68
2024/04/24 01:40:47;;;;;;;0.50;0.38;;;9.00;99.90;;;;;;5534865;25;20207;-68
2024/04/24 01:43:13;;;;;;;0.40;0.30;;;9.10;99.90;;;;;;5535255;25;19993;-68
2024/04/24 01:45:41;;;;;;;0.28;0.20;;;9.10;99.90;;;;;;5534707;25;19989;-68
2024/04/24 01:48:07;;;;;;;1.38;0.35;;;9.00;99.90;;;;;;5505342;26;20124;-68
2024/04/24 01:50:32;;;;;;;0.30;0.22;;;9.20;99.90;;;;;;5534704;25;20000;-68
2024/04/24 01:52:58;;;;;;;0.10;0.10;;;9.00;99.90;;;;;;5534961;25;20214;-68
2024/04/24 01:55:24;;;;;;;0.10;0.10;;;;;;;;;;5533815;25;19989;-68
2024/04/24 01:57:50;;;;;;;0.68;0.40;;;9.20;99.90;;;;;;5541266;25;20056;-69
2024/04/24 02:00:16;;;;;;;0.40;0.17;;;9.00;99.90;;;;;;5543008;25;19994;-70
2024/04/24 02:02:41;;;;;;;0.52;0.20;;;8.90;99.90;;;;;;5534512;25;20024;-69
2024/04/24 02:05:07;;;;;;;0.55;0.50;;;9.00;99.90;;;;;;5535824;25;20168;-69
2024/04/24 02:07:33;;;;;;;0.77;0.60;;;8.80;99.90;;;;;;5534349;25;19989;-68
2024/04/24 02:09:58;;;;;;;1.15;0.43;;;8.80;99.90;;;;;;5538591;25;19985;-68
2024/04/24 02:12:24;;;;;;;0.88;0.52;;;9.00;99.90;;;;;;5534125;25;19989;-68
2024/04/24 02:14:50;;;;;;;0.28;0.28;;;8.90;99.90;;;;;;5534200;25;20000;-69
2024/04/24 02:17:16;;;;;;;1.00;0.70;;;;;;;;;;5539488;25;19997;-68
2024/04/24 02:19:42;;;;;;;1.50;0.93;;;;;;;;;;5535978;25;20093;-69
2024/04/24 02:22:09;;;;;;;0.75;0.40;;;8.90;99.90;;;;;;5535368;25;20224;-69
2024/04/24 02:27:19;;;;;;;0.65;0.65;;;9.10;99.90;;;;;;5534259;25;20297;-69
2024/04/24 02:29:45;;;;;;;0.20;0.20;;;;;;;;;;5534338;25;19989;-69
2024/04/24 02:32:11;;;;;;;0.35;0.35;;;9.10;99.90;;;;;;5534082;25;19985;-70
2024/04/24 02:34:37;;;;;;;8.98;1.13;;;;;;;;;;5534025;25;20064;-70
2024/04/24 02:37:04;;;;;;;0.73;0.73;;;9.00;99.90;;;;;;5535380;25;20198;-70
2024/04/24 02:39:30;;;;;;;0.00;0.00;;;;;;;;;;5508132;25;20005;-70
2024/04/24 02:41:55;;;;;;;0.90;0.65;;;9.00;99.90;;;;;;5534036;25;20012;-70
2024/04/24 02:44:21;;;;;;;0.28;0.28;;;9.00;99.90;;;;;;5538001;25;19990;-70
2024/04/24 02:46:47;;;;;;;0.82;0.45;;;8.90;99.90;;;;;;5533978;25;20086;-69
2024/04/24 02:49:12;;;;;;;0.10;0.10;;;8.90;99.90;;;;;;5533889;25;19993;-70
2024/04/24 02:51:38;;;;;;;0.60;0.55;;;8.90;99.90;;;;;;5533881;25;19993;-70
2024/04/24 02:54:04;;;;;;;1.10;0.85;;;9.00;99.90;;;;;;5533821;25;19993;-70
2024/04/24 02:56:29;;;;;;;7.38;1.13;;;8.90;99.90;;;;;;5505881;25;19989;-70
2024/04/24 02:58:55;;;;;;;0.00;0.00;;;8.90;99.90;;;;;;5533738;25;19989;-70
2024/04/24 03:01:21;;;;;;;0.25;0.25;;;8.70;99.90;;;;;;5533689;25;20210;-70
2024/04/24 03:03:46;;;;;;;0.30;0.30;;;8.90;99.90;;;;;;5533477;25;19985;-71
2024/04/24 03:06:12;;;;;;;0.15;0.13;;;9.00;99.90;;;;;;5545758;25;19984;-70
2024/04/24 03:08:38;;;;;;;0.40;0.30;;;8.90;99.90;;;;;;5555243;25;19989;-70
2024/04/24 03:11:04;;;;;;;0.35;0.30;;;;;;;;;;5533643;25;19996;-70
2024/04/24 03:13:29;;;;;;;0.10;0.10;;;8.90;99.90;;;;;;5534417;25;20094;-70
2024/04/24 03:15:55;;;;;;;1.48;0.47;;;8.90;99.90;;;;;;5533591;25;19999;-70
2024/04/24 03:18:21;;;;;;;0.17;0.17;;;;;;;;;;5533553;25;19989;-70
2024/04/24 03:20:47;;;;;;;0.00;0.00;;;8.90;99.90;;;;;;5533111;25;20021;-70
2024/04/24 03:23:12;;;;;;;0.90;0.30;;;8.70;99.90;;;;;;5533518;25;20041;-70
2024/04/24 03:25:38;;;;;;;0.40;0.40;;;9.00;99.90;;;;;;5501237;25;19997;-69
2024/04/24 03:28:04;;;;;;;0.20;0.20;;;8.90;99.90;;;;;;5501536;26;20049;-68
2024/04/24 03:30:30;;;;;;;0.10;0.10;;;9.00;99.90;;;;;;5534244;25;20000;-67
2024/04/24 03:32:55;;;;;;;0.52;0.20;;;8.90;99.90;;;;;;5503644;25;20255;-69
2024/04/24 03:35:21;;;;;;;0.00;0.00;;;8.90;99.90;;;;;;5496076;26;20074;-68
2024/04/24 03:37:47;;;;;;;0.00;0.00;;;8.90;99.90;;;;;;5533422;25;19985;-68
2024/04/24 03:40:12;;;;;;;0.00;0.00;;;8.90;99.90;;;;;;5531488;25;20626;-68
2024/04/24 03:42:38;;;;;;;0.05;0.05;;;9.10;99.90;;;;;;5532222;25;19993;-69
2024/04/24 03:45:04;;;;;;;0.10;0.10;;;8.90;99.90;;;;;;5480527;25;19997;-67
2024/04/24 03:47:29;;;;;;;0.00;0.00;;;8.80;99.90;;;;;;5552743;25;20000;-66
2024/04/24 03:49:55;;;;;;;0.00;0.00;;;8.90;99.90;;;;;;5532151;25;19985;-67
2024/04/24 03:52:21;;;;;;;0.00;0.00;;;8.90;99.90;;;;;;5544452;25;19989;-67
2024/04/24 03:54:47;;;;;;;0.00;0.00;;;;;;;;;;5532370;25;20349;-68
2024/04/24 03:57:13;;;;;;;0.00;0.00;;;8.70;99.90;;;;;;5536149;25;20452;-68
2024/04/24 03:59:38;;;;;;;0.00;0.00;;;8.80;99.90;;;;;;5513302;25;19991;-67
2024/04/24 04:02:04;;;;;;;0.00;0.00;;;9.00;99.90;;;;;;5544142;25;20053;-67
2024/04/24 04:04:29;;;;;;;0.00;0.00;;;9.00;99.90;;;;;;5533714;25;19992;-67
2024/04/24 04:06:56;;;;;;;0.00;0.00;;;;;;;;;;5532836;25;19993;-67
2024/04/24 04:09:21;;;;;;;0.00;0.00;;;8.90;99.90;;;;;;5532600;25;19993;-67
2024/04/24 04:11:47;;;;;;;0.00;0.00;;;8.90;99.90;;;;;;5547758;25;20327;-67
2024/04/24 04:14:13;;;;;;;0.00;0.00;;;;;;;;;;5532569;25;20049;-67
2024/04/24 04:16:39;;;;;;;0.00;0.00;;;9.00;99.90;;;;;;5532133;25;19997;-69
2024/04/24 04:19:04;;;;;;;0.08;0.08;;;8.80;99.90;;;;;;5544697;25;20050;-66
2024/04/24 04:21:30;;;;;;;0.00;0.00;;;8.80;99.90;;;;;;5504997;25;19997;-66
2024/04/24 04:23:56;;;;;;;0.20;0.20;;;8.90;99.90;;;;;;5535992;25;20131;-66
2024/04/24 04:26:21;;;;;;;0.00;0.00;;;8.80;99.90;;;;;;5545604;25;20000;-66
2024/04/24 04:28:47;;;;;;;0.00;0.00;;;8.80;99.90;;;;;;5504349;25;19985;-67
2024/04/24 04:31:13;;;;;;;0.00;0.00;;;8.90;99.90;;;;;;5535915;25;19981;-66
2024/04/24 04:33:38;;;;;;;0.00;0.00;;;8.80;99.90;;;;;;5535766;25;20038;-66
2024/04/24 04:36:05;;;;;;;0.00;0.00;;;;;;;;;;5504038;26;20168;-70
2024/04/24 04:38:31;;;;;;;0.00;0.00;;;;;;;;;;5507533;25;19993;-67
2024/04/24 04:40:58;;;;;;;0.00;0.00;;;8.70;99.90;;;;;;5535921;25;20206;-66
2024/04/24 04:43:25;;;;;;;0.10;0.10;;;8.90;99.90;;;;;;5535665;25;20180;-66
2024/04/24 04:45:51;;;;;;;0.10;0.10;;;8.60;99.90;;;;;;5486273;26;19994;-66
2024/04/24 04:48:16;;;;;;;0.00;0.00;;;8.60;99.90;;;;;;5527302;25;19990;-66
2024/04/24 04:50:42;;;;;;;0.00;0.00;;;9.20;99.90;;;;;;5535356;25;19993;-66
2024/04/24 04:53:08;;;;;;;0.00;0.00;;;8.60;99.90;;;;;;5539625;25;20549;-67
2024/04/24 04:55:34;;;;;;;0.00;0.00;;;;;;;;;;5536354;25;20273;-66
2024/04/24 04:58:03;;;;;;;0.15;0.10;;;8.80;99.90;;;;;;5503758;26;19993;-67
2024/04/24 05:00:29;;;;;;;0.00;0.00;;;8.70;99.90;;;;;;5538737;25;20005;-67
2024/04/24 05:02:55;;;;;;;0.10;0.10;;;9.20;99.90;;;;;;5535494;25;19992;-67
2024/04/24 05:05:22;;;;;;;0.00;0.00;;;;;;;;;;5535512;25;19989;-67
2024/04/24 05:07:47;;;;;;;0.00;0.00;;;9.20;99.90;;;;;;5540671;25;19999;-64
2024/04/24 05:10:13;;;;;;;0.10;0.10;;;8.90;99.90;;;;;;5535510;25;20299;-64
2024/04/24 05:12:39;;;;;;;0.00;0.00;;;8.80;99.90;;;;;;5539749;25;19997;-63
2024/04/24 05:15:05;;;;;;;0.00;0.00;;;8.80;99.90;;;;;;5533761;25;19992;-65
2024/04/24 05:17:31;;;;;;;0.00;0.00;;;8.90;99.90;;;;;;5533127;25;19982;-67
2024/04/24 05:19:57;;;;;;;0.00;0.00;;;8.90;99.90;;;;;;5534328;25;20046;-67
2024/04/24 05:22:23;;;;;;;0.00;0.00;;;8.80;99.90;;;;;;5534231;25;19993;-66
2024/04/24 05:24:49;;;;;;;0.00;0.00;;;8.80;99.90;;;;;;5534385;25;20000;-67
2024/04/24 05:29:59;;;;;;;0.00;0.00;;;9.10;99.90;;;;;;5535717;25;20060;-67
2024/04/24 05:32:25;;;;;;;0.00;0.00;;;8.70;99.90;;;;;;5533698;25;19997;-66
2024/04/24 05:34:51;;;;;;;0.00;0.00;;;9.00;99.90;;;;;;5532621;25;19989;-67
2024/04/24 05:37:17;;;;;;;0.00;0.00;;;;;;;;;;5472856;26;20002;-67
2024/04/24 05:39:42;;;;;;;0.00;0.00;;;9.00;99.90;;;;;;5530604;25;20017;-67
2024/04/24 05:42:08;;;;;;;0.00;0.00;;;8.70;99.90;;;;;;5501755;26;19989;-67
2024/04/24 05:44:34;;;;;;;0.75;0.65;;;9.00;99.90;;;;;;5534538;25;20189;-66
2024/04/24 05:47:06;;;;;;;0.00;0.00;;;9.00;99.90;;;;;;5536221;25;19989;-66
2024/04/24 05:49:31;;;;;;;0.00;0.00;;;8.80;99.90;;;;;;5536838;25;19985;-66
2024/04/24 05:51:57;;;;;;;0.00;0.00;;;9.00;99.90;;;;;;5536559;25;20070;-66
2024/04/24 05:54:23;;;;;;;0.00;0.00;;;9.10;99.90;;;;;;5535055;25;19989;-66
2024/04/24 05:56:48;;;;;;;0.00;0.00;;;9.10;99.90;;;;;;5571982;25;19993;-67
2024/04/24 05:59:14;;;;;;;0.00;0.00;;;;;;;;;;5554622;25;20253;-66
2024/04/24 06:01:40;;;;;;;0.00;0.00;;;;;;;;;;5534424;25;19993;-66
2024/04/24 06:04:06;;;;;;;0.10;0.10;;;9.10;99.90;;;;;;5535768;25;20021;-67
2024/04/24 06:06:32;;;;;;;0.00;0.00;;;9.10;99.90;;;;;;5549558;25;20004;-67
2024/04/24 06:08:58;;;;;;;0.00;0.00;;;9.00;99.90;;;;;;5512100;25;20039;-66
2024/04/24 06:11:24;;;;;;;0.00;0.00;;;9.20;99.90;;;;;;5537963;25;19993;-67
2024/04/24 06:13:50;;;;;;;0.00;0.00;;;9.10;99.90;;;;;;5541519;25;19996;-67
2024/04/24 06:16:16;;;;;;;0.00;0.00;;;9.10;99.90;;;;;;5534654;25;20380;-67
2024/04/24 06:18:41;;;;;;;0.30;0.10;;;9.00;99.90;;;;;;5534135;25;20549;-65
2024/04/24 06:21:07;;;;;;;0.13;0.13;;;9.00;99.90;;;;;;5535442;25;20002;-65
2024/04/24 06:23:33;;;;;;;0.00;0.00;;;9.10;99.90;;;;;;5549666;25;19996;-65
2024/04/24 06:25:58;;;;;;;0.00;0.00;;;9.30;99.90;;;;;;5538246;25;20142;-65
2024/04/24 06:28:24;;;;;;;0.00;0.00;;;9.00;99.90;;;;;;5540191;25;20000;-65
2024/04/24 06:30:50;;;;;;;0.00;0.00;;;9.10;99.90;;;;;;5534194;25;20004;-65
2024/04/24 06:33:15;;;;;;;0.00;0.00;;;9.00;99.90;;;;;;5534232;25;19990;-65
2024/04/24 06:35:41;;;;;;;0.00;0.00;;;9.20;99.90;;;;;;5533939;25;20098;-65
2024/04/24 06:38:08;;;;;;;0.00;0.00;;;9.10;99.90;;;;;;5534840;25;20046;-65
2024/04/24 06:40:34;;;;;;;0.00;0.00;;;;;;;;;;5533417;25;20005;-73
2024/04/24 06:42:59;;;;;;;0.00;0.00;;;8.80;99.90;;;;;;5531648;25;20000;-65
2024/04/24 06:45:25;;;;;;;0.00;0.00;;;9.00;99.90;;;;;;5532371;25;20002;-65
2024/04/24 06:47:50;;;;;;;0.00;0.00;;;9.00;99.90;;;;;;5533956;25;20005;-65
2024/04/24 06:50:16;;;;;;;0.00;0.00;;;9.00;99.90;;;;;;5532587;25;20001;-65
2024/04/24 06:52:42;;;;;;;0.00;0.00;;;9.10;99.90;;;;;;5531396;25;20633;-65
2024/04/24 06:55:08;;;;;;;0.00;0.00;;;;;;;;;;5532980;25;20186;-65
2024/04/24 06:57:34;;;;;;;0.00;0.00;;;9.00;99.90;;;;;;5531432;25;20001;-65
2024/04/24 06:59:59;;;;;;;0.00;0.00;;;9.00;99.90;;;;;;5531577;25;20000;-65
2024/04/24 07:02:25;;;;;;;0.00;0.00;;;8.90;99.90;;;;;;5531647;25;20055;-64
2024/04/24 07:04:51;;;;;;;0.00;0.00;;;8.80;99.90;;;;;;5532342;25;19993;-64
2024/04/24 07:07:16;;;;;;;0.00;0.00;;;8.80;99.90;;;;;;5533710;25;20205;-64
2024/04/24 07:09:42;;;;;;;0.00;0.00;;;8.90;99.90;;;;;;5537751;25;19995;-65
2024/04/24 07:12:08;;;;;;;0.10;0.10;;;8.90;99.90;;;;;;5534614;25;20195;-65
2024/04/24 07:14:33;;;;;;;0.05;0.05;;;9.20;99.90;;;;;;5560073;25;20485;-65
2024/04/24 07:16:59;;;;;;;0.00;0.00;;;;;;;;;;5532242;25;20147;-67
2024/04/24 07:19:25;;;;;;;0.00;0.00;;;9.00;99.90;;;;;;5533046;25;19993;-68
2024/04/24 07:21:51;;;;;;;0.00;0.00;;;8.90;99.90;;;;;;5533402;25;20202;-68
2024/04/24 07:24:17;;;;;;;0.32;0.32;;;;;;;;;;5533399;25;20050;-68
2024/04/24 07:26:43;;;;;;;0.00;0.00;;;9.00;99.90;;;;;;5533070;25;19989;-68
2024/04/24 07:29:08;;;;;;;1.08;0.52;;;9.00;99.90;;;;;;5537528;25;20041;-66
2024/04/24 07:31:34;;;;;;;0.08;0.08;;;8.90;99.90;;;;;;5548542;25;20055;-66
2024/04/24 07:34:00;;;;;;;0.10;0.10;;;8.80;99.90;;;;;;5543291;25;19992;-67
2024/04/24 07:36:26;;;;;;;0.00;0.00;;;8.90;99.90;;;;;;5533833;25;20260;-67
2024/04/24 07:38:52;;;;;;;0.00;0.00;;;8.80;99.90;;;;;;5534102;25;19990;-67
2024/04/24 07:41:18;;;;;;;0.00;0.00;;;8.80;99.90;;;;;;5533961;25;19997;-67
2024/04/24 07:43:47;;;;;;;0.00;0.00;;;8.60;99.90;;;;;;5533013;25;20066;-67
2024/04/24 07:46:12;;;;;;;0.53;0.53;;;8.70;99.90;;;;;;5534606;25;19989;-67
2024/04/24 07:48:38;;;;;;;0.08;0.08;;;8.80;99.90;;;;;;5548113;25;19985;-67
2024/04/24 07:51:04;;;;;;;0.10;0.10;;;8.70;99.90;;;;;;5533528;25;19986;-67
2024/04/24 07:53:30;;;;;;;0.00;0.00;;;;;;;;;;5533399;25;19986;-67
2024/04/24 07:55:56;;;;;;;0.00;0.00;;;8.80;99.90;;;;;;5504887;26;19992;-67
2024/04/24 07:58:21;;;;;;;0.10;0.10;;;8.60;99.90;;;;;;5515303;25;19981;-67
2024/04/24 08:00:47;;;;;;;0.00;0.00;;;8.50;99.90;;;;;;5536540;25;20004;-67
2024/04/24 08:03:13;;;;;;;0.00;0.00;;;8.60;99.90;;;;;;5537473;25;20005;-68
2024/04/24 08:05:38;;;;;;;0.00;0.00;;;8.50;99.90;;;;;;5536000;25;19982;-67
2024/04/24 08:08:04;;;;;;;0.00;0.00;;;8.50;99.90;;;;;;5494480;25;19988;-67
2024/04/24 08:10:31;;;;;;;0.00;0.00;;;;;;;;;;5540927;25;19985;-67
2024/04/24 08:12:56;;;;;;;0.00;0.00;;;8.40;99.90;;;;;;5536211;25;19981;-66
2024/04/24 08:15:22;;;;;;;0.00;0.00;;;8.60;99.90;;;;;;5536220;25;20099;-66
2024/04/24 08:17:48;;;;;;;0.00;0.00;;;8.50;99.90;;;;;;5543009;25;19989;-66
2024/04/24 08:20:14;;;;;;;3.20;0.70;;;8.60;99.90;;;;;;5537207;25;20001;-66
2024/04/24 08:22:40;;;;;;;0.65;0.65;;;8.80;99.90;;;;;;5548022;25;19985;-67
2024/04/24 08:25:06;;;;;;;0.00;0.00;;;8.60;99.90;;;;;;5536014;25;20003;-67
2024/04/24 08:27:32;;;;;;;2.05;0.32;;;8.60;99.90;;;;;;5538624;25;19993;-67
2024/04/24 08:29:58;;;;;;;0.00;0.00;;;8.70;99.90;;;;;;5571278;25;20278;-67
2024/04/24 08:32:24;;;;;;;0.10;0.10;;;8.60;99.90;;;;;;5535947;25;19989;-67
2024/04/24 08:34:49;;;;;;;0.00;0.00;;;8.40;99.90;;;;;;5505036;26;19992;-66
2024/04/24 08:37:15;;;;;;;0.00;0.00;;;8.70;99.90;;;;;;5544471;25;20025;-66
2024/04/24 08:39:42;;;;;;;0.00;0.00;;;8.80;99.90;;;;;;5537764;25;20038;-66
2024/04/24 08:42:08;;;;;;;0.10;0.10;;;8.60;99.90;;;;;;5535925;25;19995;-66
2024/04/24 08:44:35;;;;;;;0.00;0.00;;;8.50;99.90;;;;;;5535551;25;20000;-66
2024/04/24 08:47:03;;;;;;;0.00;0.00;;;8.50;99.90;;;;;;5535932;25;20270;-66
2024/04/24 08:49:35;;;;;;;0.00;0.00;;;8.60;99.90;;;;;;5535386;25;20005;-66
2024/04/24 08:52:02;;;;;;;0.00;0.00;;;8.20;99.90;;;;;;5535682;25;20005;-66
2024/04/24 08:54:30;;;;;;;0.00;0.00;;;8.40;99.90;;;;;;5539383;25;20143;-67
2024/04/24 08:57:08;;;;;;;0.00;0.00;;;8.40;99.90;;;;;;5503815;26;20002;-67
2024/04/24 08:59:41;;;;;;;0.00;0.00;;;8.40;99.90;;;;;;5537890;25;19985;-66
2024/04/24 09:02:09;;;;;;;1.45;0.80;;;8.40;99.90;;;;;;5545945;25;20025;-67
2024/04/24 09:04:36;;;;;;;0.00;0.00;;;8.70;99.90;;;;;;5534898;25;19989;-67
2024/04/24 09:07:03;;;;;;;0.00;0.00;;;8.40;99.90;;;;;;5552765;25;19985;-66
2024/04/24 09:09:29;;;;;;;0.00;0.00;;;8.60;99.90;;;;;;5554286;25;20221;-66
2024/04/24 09:12:01;;;;;;;0.00;0.00;;;8.30;99.90;;;;;;5535048;25;19989;-66
2024/04/24 09:14:29;;;;;;;0.00;0.00;;;8.50;99.90;;;;;;5534933;25;19989;-66
2024/04/24 09:16:56;;;;;;;0.00;0.00;;;8.50;99.90;;;;;;5535160;25;19993;-66
2024/04/24 09:19:21;;;;;;;0.25;0.25;;;8.40;99.90;;;;;;5535296;25;19996;-66
2024/04/24 09:21:47;;;;;;;0.00;0.00;;;8.40;99.90;;;;;;5534949;25;19994;-66
2024/04/24 09:24:16;;;;;;;0.10;0.10;;;8.40;99.90;;;;;;5550790;25;20022;-66
2024/04/24 09:26:43;;;;;;;0.03;0.03;;;8.50;99.90;;;;;;5509038;25;20581;-67
2024/04/24 09:29:12;;;;;;;2.17;0.40;;;8.50;99.90;;;;;;5545438;25;20005;-66
2024/04/24 09:31:38;;;;;;;0.00;0.00;;;8.40;99.90;;;;;;5552697;25;20009;-66
2024/04/24 09:34:06;;;;;;;0.00;0.00;;;8.40;99.90;;;;;;5535036;25;20054;-66
2024/04/24 09:36:32;;;;;;;1.45;0.75;;;8.30;99.90;;;;;;5534837;25;20001;-66
2024/04/24 09:38:58;;;;;;;0.00;0.00;;;8.20;99.90;;;;;;5534752;25;20050;-66
2024/04/24 09:41:24;;;;;;;0.00;0.00;;;8.20;99.90;;;;;;5534689;25;20050;-66
2024/04/24 09:43:50;;;;;;;0.40;0.40;;;8.20;99.90;;;;;;5520631;25;20144;-66
2024/04/24 09:46:18;;;;;;;0.30;0.30;;;8.20;99.90;;;;;;5534686;25;19997;-66
2024/04/24 09:48:44;;;;;;;0.05;0.00;;;8.30;99.90;;;;;;5534471;25;20073;-66
2024/04/24 09:51:13;;;;;;;0.00;0.00;;;8.40;99.90;;;;;;5534703;25;19997;-66
2024/04/24 09:53:39;;;;;;;0.00;0.00;;;8.30;99.90;;;;;;5502749;25;19999;-66
2024/04/24 09:56:15;;;;;;;0.22;0.15;;;8.20;99.90;;;;;;5534692;25;19985;-64
2024/04/24 09:58:43;;;;;;;0.00;0.00;;;8.00;99.90;;;;;;5534207;25;19994;-64
2024/04/24 10:01:12;;;;;;;0.15;0.15;;;8.10;99.90;;;;;;5535477;25;20005;-65
2024/04/24 10:03:40;;;;;;;0.05;0.05;;;8.20;99.90;;;;;;5534461;25;19985;-65
2024/04/24 10:06:08;;;;;;;0.20;0.20;;;8.20;99.90;;;;;;5534493;25;19996;-64
2024/04/24 10:08:36;;;;;;;0.00;0.00;;;8.20;99.90;;;;;;5502817;25;19993;-64
2024/04/24 10:11:05;;;;;;;0.00;0.00;;;8.40;99.90;;;;;;5478290;26;20005;-65
2024/04/24 10:13:36;;;;;;;0.00;0.00;;;8.10;99.90;;;;;;5529893;25;19993;-64
2024/04/24 10:16:04;;;;;;;0.10;0.10;;;8.20;99.90;;;;;;5534575;25;20045;-64
2024/04/24 10:18:31;;;;;;;0.08;0.08;;;8.10;99.90;;;;;;5535150;25;20049;-64
2024/04/24 10:20:57;;;;;;;0.00;0.00;;;8.10;99.90;;;;;;5534482;25;20218;-65
2024/04/24 10:23:27;;;;;;;0.00;0.00;;;8.00;99.90;;;;;;5534445;25;19985;-65
2024/04/24 10:25:54;;;;;;;0.00;0.00;;;8.00;99.90;;;;;;5534302;25;19994;-64
2024/04/24 10:28:21;;;;;;;0.35;0.35;;;8.00;99.90;;;;;;5548082;25;20001;-65
2024/04/24 10:30:48;;;;;;;0.00;0.00;;;7.90;99.90;;;;;;5536169;25;19990;-65
2024/04/24 10:33:16;;;;;;;0.30;0.30;;;8.00;99.90;;;;;;5538072;25;20029;-65
2024/04/24 10:35:43;;;;;;;0.00;0.00;;;8.10;99.90;;;;;;5535057;25;20045;-65
2024/04/24 10:38:09;;;;;;;0.10;0.10;;;;;;;;;;5534030;25;20000;-65
2024/04/24 10:40:35;;;;;;;0.00;0.00;;;7.90;99.90;;;;;;5533669;25;19997;-65
2024/04/24 10:43:07;;;;;;;0.00;0.00;;;8.10;99.90;;;;;;5534174;25;20198;-65
2024/04/24 10:45:38;;;;;;;0.00;0.00;;;8.00;99.90;;;;;;5533709;25;19997;-65
2024/04/24 10:48:05;;;;;;;0.00;0.00;;;8.10;99.90;;;;;;5511148;25;19989;-65
2024/04/24 10:50:33;;;;;;;0.43;0.43;;;8.00;99.90;;;;;;5506431;25;19993;-65
2024/04/24 10:53:02;;;;;;;0.00;0.00;;;8.10;99.90;;;;;;5534911;25;20061;-64
2024/04/24 10:55:28;;;;;;;0.00;0.00;;;;;;;;;;5533692;25;19997;-65
2024/04/24 10:57:54;;;;;;;0.00;0.00;;;8.00;99.90;;;;;;5533824;25;20001;-65
2024/04/24 11:00:24;;;;;;;0.10;0.10;;;8.10;99.90;;;;;;5534771;25;19989;-64
2024/04/24 11:02:56;;;;;;;2.10;0.95;;;8.00;99.90;;;;;;5533919;25;19989;-65
2024/04/24 11:05:22;;;;;;;0.00;0.00;;;8.10;99.90;;;;;;5533766;25;20004;-65
2024/04/24 11:08:02;;;;;;;0.57;0.57;;;8.00;99.90;;;;;;5533767;25;19989;-65
2024/04/24 11:10:32;;;;;;;0.30;0.30;;;7.90;99.90;;;;;;5541656;25;19997;-65
2024/04/24 11:12:58;;;;;;;0.20;0.20;;;8.10;99.90;;;;;;5533675;25;20013;-65
2024/04/24 11:15:28;;;;;;;0.10;0.10;;;8.00;99.90;;;;;;5545990;25;20291;-65
2024/04/24 11:17:55;;;;;;;0.00;0.00;;;;;;;;;;5543958;25;20254;-65
2024/04/24 11:20:22;;;;;;;0.00;0.00;;;8.10;99.90;;;;;;5533179;25;20209;-65
2024/04/24 11:22:48;;;;;;;1.23;0.70;;;8.00;99.90;;;;;;5533231;25;19993;-65
2024/04/24 11:25:14;;;;;;;0.17;0.17;;;7.90;99.90;;;;;;5534395;25;19989;-64
2024/04/24 11:27:42;;;;;;;0.00;0.00;;;8.00;99.90;;;;;;5532750;25;19989;-65
2024/04/24 11:30:12;;;;;;;0.70;0.45;;;8.00;99.90;;;;;;5534520;25;20062;-65
2024/04/24 11:32:40;;;;;;;0.20;0.15;;;8.20;99.90;;;;;;5533211;25;20208;-64
2024/04/24 11:35:07;;;;;;;0.65;0.65;;;8.00;99.90;;;;;;5533177;25;20045;-64
2024/04/24 11:37:34;;;;;;;0.00;0.00;;;8.10;99.90;;;;;;5511999;25;20008;-64
2024/04/24 11:40:00;;;;;;;0.20;0.20;;;7.90;99.90;;;;;;5533174;25;20073;-65
2024/04/24 11:42:27;;;;;;;0.00;0.00;;;;;;;;;;5534361;25;19996;-65
2024/04/24 11:44:53;;;;;;;0.00;0.00;;;;;;;;;;5537636;25;19989;-67
2024/04/24 11:47:19;;;;;;;0.00;0.00;;;7.90;99.90;;;;;;5533014;25;19985;-65
2024/04/24 11:49:51;;;;;;;0.17;0.17;;;8.00;99.90;;;;;;5470724;25;20046;-66
2024/04/24 11:52:17;;;;;;;0.00;0.00;;;7.90;99.90;;;;;;5532947;25;20202;-65
2024/04/24 11:54:51;;;;;;;0.10;0.10;;;8.00;99.90;;;;;;5533133;25;19994;-65
2024/04/24 11:57:17;;;;;;;0.00;0.00;;;;;;;;;;5540206;25;20004;-64
2024/04/24 11:59:45;;;;;;;2.25;0.43;;;8.20;99.90;;;;;;5539445;25;19989;-64
2024/04/24 12:02:17;;;;;;;0.00;0.00;;;8.00;99.90;;;;;;5532821;25;20049;-64
2024/04/24 12:04:47;;;;;;;0.00;0.00;;;8.10;99.90;;;;;;5548251;25;19993;-67
2024/04/24 12:07:15;;;;;;;0.28;0.28;;;7.90;99.90;;;;;;5545565;25;20004;-65
2024/04/24 12:09:40;;;;;;;0.00;0.00;;;8.00;99.90;;;;;;5549207;25;19996;-64
2024/04/24 12:12:07;;;;;;;0.00;0.00;;;7.90;99.90;;;;;;5532660;25;19994;-64
2024/04/24 12:14:35;;;;;;;0.00;0.00;;;7.80;99.90;;;;;;5532289;25;20050;-64
2024/04/24 12:17:01;;;;;;;0.10;0.10;;;;;;;;;;5533455;25;20054;-64
2024/04/24 12:19:27;;;;;;;0.00;0.00;;;;;;;;;;5531972;25;19993;-65
2024/04/24 12:21:53;;;;;;;0.10;0.10;;;;;;;;;;5532174;25;20001;-65
2024/04/24 12:24:22;;;;;;;0.20;0.10;;;7.60;99.90;;;;;;5532323;25;20005;-64
2024/04/24 12:26:52;;;;;;;0.00;0.00;;;7.40;99.90;;;;;;5469862;25;19993;-65
2024/04/24 12:29:18;;;;;;;0.00;0.00;;;;;;;;;;5546245;25;20067;-64
2024/04/24 12:31:46;;;;;;;0.05;0.05;;;7.40;99.90;;;;;;5536278;25;20071;-64
2024/04/24 12:34:12;;;;;;;0.00;0.00;;;7.60;99.90;;;;;;5533343;25;20236;-64
2024/04/24 12:36:38;;;;;;;0.65;0.65;;;;;;;;;;5531492;25;20001;-65
2024/04/24 12:39:05;;;;;;;0.95;0.70;;;7.50;99.90;;;;;;5532155;25;20076;-65
2024/04/24 12:41:34;;;;;;;0.55;0.30;;;;;;;;;;5503320;25;19993;-64
2024/04/24 12:44:01;;;;;;;0.00;0.00;;;;;;;;;;5535950;25;19989;-64
2024/04/24 12:46:27;;;;;;;0.00;0.00;;;;;;;;;;5535470;25;19990;-64
2024/04/24 12:48:54;;;;;;;0.00;0.00;;;7.40;99.90;;;;;;5546798;25;19997;-64
2024/04/24 12:51:20;;;;;;;0.00;0.00;;;7.80;99.90;;;;;;5536880;25;20206;-64
2024/04/24 12:53:46;;;;;;;0.00;0.00;;;;;;;;;;5535403;25;20054;-65
2024/04/24 12:56:12;;;;;;;0.43;0.43;;;;;;;;;;5535770;25;19997;-65
2024/04/24 12:58:38;;;;;;;0.00;0.00;;;;;;;;;;5535387;25;19990;-64
2024/04/24 13:01:04;;;;;;;0.00;0.00;;;;;;;;;;5535380;25;20005;-64
2024/04/24 13:03:30;;;;;;;0.00;0.00;;;;;;;;;;5535417;25;20029;-64
2024/04/24 13:05:56;;;;;;;0.00;0.00;;;;;;;;;;5535376;25;19985;-65
2024/04/24 13:08:22;;;;;;;0.00;0.00;;;;;;;;;;5536543;25;19989;-64
2024/04/24 13:10:48;;;;;;;0.08;0.03;;;;;;;;;;5535089;25;19992;-64